sensor_id;sensor_type;location;lat;lon;timestamp;P1;durP1;ratioP1;P2;durP2;ratioP2
23362;SDS011;11853;48.080;11.960;2023-04-16T00:00:24;2.90;;;2.70;;
23362;SDS011;11853;48.080;11.960;2023-04-16T00:02:50;3.28;;;3.00;;
23362;SDS011;11853;48.080;11.960;2023-04-16T00:05:15;2.95;;;2.75;;
23362;SDS011;11853;48.080;11.960;2023-04-16T00:07:41;2.50;;;2.30;;
23362;SDS011;11853;48.080;11.960;2023-04-16T00:10:07;3.20;;;2.90;;
23362;SDS011;11853;48.080;11.960;2023-04-16T00:12:32;3.15;;;2.75;;
23362;SDS011;11853;48.080;11.960;2023-04-16T00:14:58;2.95;;;2.65;;
23362;SDS011;11853;48.080;11.960;2023-04-16T00:17:23;3.17;;;2.78;;
23362;SDS011;11853;48.080;11.960;2023-04-16T00:19:49;3.65;;;2.70;;
23362;SDS011;11853;48.080;11.960;2023-04-16T00:22:15;2.92;;;2.45;;
23362;SDS011;11853;48.080;11.960;2023-04-16T00:24:40;2.70;;;2.50;;
23362;SDS011;11853;48.080;11.960;2023-04-16T00:27:06;2.90;;;2.70;;
23362;SDS011;11853;48.080;11.960;2023-04-16T00:29:32;2.80;;;2.60;;
23362;SDS011;11853;48.080;11.960;2023-04-16T00:31:59;2.50;;;2.30;;
23362;SDS011;11853;48.080;11.960;2023-04-16T00:34:25;2.50;;;2.30;;
23362;SDS011;11853;48.080;11.960;2023-04-16T00:36:50;2.60;;;2.40;;
23362;SDS011;11853;48.080;11.960;2023-04-16T00:39:16;2.88;;;2.67;;
23362;SDS011;11853;48.080;11.960;2023-04-16T00:41:42;3.03;;;2.83;;
23362;SDS011;11853;48.080;11.960;2023-04-16T00:44:08;3.22;;;3.00;;
23362;SDS011;11853;48.080;11.960;2023-04-16T00:46:34;2.75;;;2.45;;
23362;SDS011;11853;48.080;11.960;2023-04-16T00:49:01;3.55;;;3.25;;
23362;SDS011;11853;48.080;11.960;2023-04-16T00:51:27;4.65;;;3.78;;
23362;SDS011;11853;48.080;11.960;2023-04-16T00:53:52;3.97;;;3.67;;
23362;SDS011;11853;48.080;11.960;2023-04-16T00:56:18;3.30;;;3.10;;
23362;SDS011;11853;48.080;11.960;2023-04-16T00:58:48;3.72;;;3.38;;
23362;SDS011;11853;48.080;11.960;2023-04-16T01:01:13;3.42;;;3.15;;
23362;SDS011;11853;48.080;11.960;2023-04-16T01:03:43;3.70;;;3.40;;
23362;SDS011;11853;48.080;11.960;2023-04-16T01:06:10;3.92;;;3.65;;
23362;SDS011;11853;48.080;11.960;2023-04-16T01:08:36;3.60;;;3.30;;
23362;SDS011;11853;48.080;11.960;2023-04-16T01:11:02;3.42;;;3.22;;
23362;SDS011;11853;48.080;11.960;2023-04-16T01:13:28;3.78;;;3.47;;
23362;SDS011;11853;48.080;11.960;2023-04-16T01:15:54;4.03;;;3.72;;
23362;SDS011;11853;48.080;11.960;2023-04-16T01:18:20;4.40;;;4.00;;
23362;SDS011;11853;48.080;11.960;2023-04-16T01:20:47;4.45;;;4.05;;
23362;SDS011;11853;48.080;11.960;2023-04-16T01:23:13;4.30;;;4.00;;
23362;SDS011;11853;48.080;11.960;2023-04-16T01:25:46;4.43;;;4.03;;
23362;SDS011;11853;48.080;11.960;2023-04-16T01:28:11;4.60;;;4.20;;
23362;SDS011;11853;48.080;11.960;2023-04-16T01:30:37;4.55;;;4.15;;
23362;SDS011;11853;48.080;11.960;2023-04-16T01:33:03;4.55;;;4.18;;
23362;SDS011;11853;48.080;11.960;2023-04-16T01:35:28;4.22;;;3.92;;
23362;SDS011;11853;48.080;11.960;2023-04-16T01:37:54;4.32;;;4.03;;
23362;SDS011;11853;48.080;11.960;2023-04-16T01:40:19;4.20;;;3.90;;
23362;SDS011;11853;48.080;11.960;2023-04-16T01:42:45;4.53;;;4.13;;
23362;SDS011;11853;48.080;11.960;2023-04-16T01:45:11;4.18;;;3.88;;
23362;SDS011;11853;48.080;11.960;2023-04-16T01:47:36;4.28;;;3.97;;
23362;SDS011;11853;48.080;11.960;2023-04-16T01:50:02;4.43;;;4.13;;
23362;SDS011;11853;48.080;11.960;2023-04-16T01:52:29;4.65;;;4.25;;
23362;SDS011;11853;48.080;11.960;2023-04-16T01:54:55;4.85;;;4.45;;
23362;SDS011;11853;48.080;11.960;2023-04-16T01:57:20;4.38;;;4.07;;
23362;SDS011;11853;48.080;11.960;2023-04-16T01:59:46;4.50;;;3.95;;
23362;SDS011;11853;48.080;11.960;2023-04-16T02:02:12;4.53;;;3.80;;
23362;SDS011;11853;48.080;11.960;2023-04-16T02:04:41;4.25;;;3.95;;
23362;SDS011;11853;48.080;11.960;2023-04-16T02:07:08;4.25;;;3.95;;
23362;SDS011;11853;48.080;11.960;2023-04-16T02:09:34;4.78;;;4.38;;
23362;SDS011;11853;48.080;11.960;2023-04-16T02:12:01;4.57;;;4.18;;
23362;SDS011;11853;48.080;11.960;2023-04-16T02:14:27;4.93;;;4.45;;
23362;SDS011;11853;48.080;11.960;2023-04-16T02:16:53;4.95;;;4.55;;
23362;SDS011;11853;48.080;11.960;2023-04-16T02:19:19;4.60;;;4.20;;
23362;SDS011;11853;48.080;11.960;2023-04-16T02:21:45;4.88;;;4.47;;
23362;SDS011;11853;48.080;11.960;2023-04-16T02:24:11;4.53;;;4.13;;
23362;SDS011;11853;48.080;11.960;2023-04-16T02:26:37;4.57;;;4.18;;
23362;SDS011;11853;48.080;11.960;2023-04-16T02:29:03;5.10;;;4.70;;
23362;SDS011;11853;48.080;11.960;2023-04-16T02:31:28;4.43;;;4.03;;
23362;SDS011;11853;48.080;11.960;2023-04-16T02:33:54;4.63;;;4.22;;
23362;SDS011;11853;48.080;11.960;2023-04-16T02:36:20;4.72;;;4.32;;
23362;SDS011;11853;48.080;11.960;2023-04-16T02:38:45;4.63;;;4.32;;
23362;SDS011;11853;48.080;11.960;2023-04-16T02:41:11;4.88;;;4.38;;
23362;SDS011;11853;48.080;11.960;2023-04-16T02:43:36;4.40;;;4.00;;
23362;SDS011;11853;48.080;11.960;2023-04-16T02:46:02;5.03;;;4.63;;
23362;SDS011;11853;48.080;11.960;2023-04-16T02:48:28;4.65;;;4.25;;
23362;SDS011;11853;48.080;11.960;2023-04-16T02:50:53;4.40;;;4.10;;
23362;SDS011;11853;48.080;11.960;2023-04-16T02:53:19;4.65;;;4.25;;
23362;SDS011;11853;48.080;11.960;2023-04-16T02:55:52;4.43;;;4.13;;
23362;SDS011;11853;48.080;11.960;2023-04-16T02:58:22;4.80;;;4.40;;
23362;SDS011;11853;48.080;11.960;2023-04-16T03:00:49;5.15;;;4.75;;
23362;SDS011;11853;48.080;11.960;2023-04-16T03:03:15;5.28;;;4.88;;
23362;SDS011;11853;48.080;11.960;2023-04-16T03:05:41;4.80;;;4.40;;
23362;SDS011;11853;48.080;11.960;2023-04-16T03:08:06;4.95;;;4.53;;
23362;SDS011;11853;48.080;11.960;2023-04-16T03:10:32;5.00;;;4.15;;
23362;SDS011;11853;48.080;11.960;2023-04-16T03:12:59;5.07;;;4.68;;
23362;SDS011;11853;48.080;11.960;2023-04-16T03:15:25;5.00;;;4.60;;
23362;SDS011;11853;48.080;11.960;2023-04-16T03:17:51;5.15;;;4.75;;
23362;SDS011;11853;48.080;11.960;2023-04-16T03:20:17;4.80;;;4.50;;
23362;SDS011;11853;48.080;11.960;2023-04-16T03:22:43;5.00;;;4.60;;
23362;SDS011;11853;48.080;11.960;2023-04-16T03:25:08;5.25;;;4.85;;
23362;SDS011;11853;48.080;11.960;2023-04-16T03:27:34;5.35;;;4.93;;
23362;SDS011;11853;48.080;11.960;2023-04-16T03:30:00;5.63;;;5.22;;
23362;SDS011;11853;48.080;11.960;2023-04-16T03:32:26;5.50;;;5.00;;
23362;SDS011;11853;48.080;11.960;2023-04-16T03:34:51;5.60;;;5.07;;
23362;SDS011;11853;48.080;11.960;2023-04-16T03:37:17;5.00;;;4.55;;
23362;SDS011;11853;48.080;11.960;2023-04-16T03:39:42;5.43;;;4.85;;
23362;SDS011;11853;48.080;11.960;2023-04-16T03:42:08;5.10;;;4.70;;
23362;SDS011;11853;48.080;11.960;2023-04-16T03:44:33;5.82;;;5.32;;
23362;SDS011;11853;48.080;11.960;2023-04-16T03:46:59;5.00;;;4.60;;
23362;SDS011;11853;48.080;11.960;2023-04-16T03:49:25;4.90;;;4.50;;
23362;SDS011;11853;48.080;11.960;2023-04-16T03:51:50;5.32;;;4.82;;
23362;SDS011;11853;48.080;11.960;2023-04-16T03:54:16;5.18;;;4.78;;
23362;SDS011;11853;48.080;11.960;2023-04-16T03:56:41;4.97;;;4.57;;
23362;SDS011;11853;48.080;11.960;2023-04-16T03:59:07;5.40;;;4.90;;
23362;SDS011;11853;48.080;11.960;2023-04-16T04:01:33;4.72;;;4.40;;
23362;SDS011;11853;48.080;11.960;2023-04-16T04:03:59;5.28;;;4.88;;
23362;SDS011;11853;48.080;11.960;2023-04-16T04:06:24;4.63;;;4.18;;
23362;SDS011;11853;48.080;11.960;2023-04-16T04:08:50;5.28;;;4.85;;
23362;SDS011;11853;48.080;11.960;2023-04-16T04:11:16;4.35;;;3.97;;
23362;SDS011;11853;48.080;11.960;2023-04-16T04:13:41;4.47;;;4.07;;
23362;SDS011;11853;48.080;11.960;2023-04-16T04:16:07;4.57;;;4.18;;
23362;SDS011;11853;48.080;11.960;2023-04-16T04:18:32;4.50;;;4.10;;
23362;SDS011;11853;48.080;11.960;2023-04-16T04:20:58;4.70;;;4.30;;
23362;SDS011;11853;48.080;11.960;2023-04-16T04:23:23;4.53;;;4.22;;
23362;SDS011;11853;48.080;11.960;2023-04-16T04:25:49;4.57;;;4.25;;
23362;SDS011;11853;48.080;11.960;2023-04-16T04:28:14;4.47;;;4.18;;
23362;SDS011;11853;48.080;11.960;2023-04-16T04:30:40;3.75;;;3.55;;
23362;SDS011;11853;48.080;11.960;2023-04-16T04:33:06;4.40;;;4.10;;
23362;SDS011;11853;48.080;11.960;2023-04-16T04:35:31;4.10;;;3.83;;
23362;SDS011;11853;48.080;11.960;2023-04-16T04:37:57;4.68;;;4.30;;
23362;SDS011;11853;48.080;11.960;2023-04-16T04:40:23;4.47;;;4.18;;
23362;SDS011;11853;48.080;11.960;2023-04-16T04:42:48;4.15;;;3.85;;
23362;SDS011;11853;48.080;11.960;2023-04-16T04:45:14;3.60;;;3.30;;
23362;SDS011;11853;48.080;11.960;2023-04-16T04:47:40;4.15;;;3.80;;
23362;SDS011;11853;48.080;11.960;2023-04-16T04:50:05;4.05;;;3.70;;
23362;SDS011;11853;48.080;11.960;2023-04-16T04:52:31;3.63;;;3.42;;
23362;SDS011;11853;48.080;11.960;2023-04-16T04:54:57;4.13;;;3.83;;
23362;SDS011;11853;48.080;11.960;2023-04-16T04:57:22;3.65;;;3.45;;
23362;SDS011;11853;48.080;11.960;2023-04-16T04:59:48;3.58;;;3.38;;
23362;SDS011;11853;48.080;11.960;2023-04-16T05:02:13;3.70;;;3.40;;
23362;SDS011;11853;48.080;11.960;2023-04-16T05:04:39;3.90;;;3.60;;
23362;SDS011;11853;48.080;11.960;2023-04-16T05:07:04;3.80;;;3.58;;
23362;SDS011;11853;48.080;11.960;2023-04-16T05:09:31;3.55;;;3.25;;
23362;SDS011;11853;48.080;11.960;2023-04-16T05:11:57;3.17;;;2.97;;
23362;SDS011;11853;48.080;11.960;2023-04-16T05:14:22;3.53;;;3.28;;
23362;SDS011;11853;48.080;11.960;2023-04-16T05:16:48;3.70;;;3.40;;
23362;SDS011;11853;48.080;11.960;2023-04-16T05:19:14;3.10;;;2.90;;
23362;SDS011;11853;48.080;11.960;2023-04-16T05:21:41;2.90;;;2.70;;
23362;SDS011;11853;48.080;11.960;2023-04-16T05:24:06;2.67;;;2.53;;
23362;SDS011;11853;48.080;11.960;2023-04-16T05:26:32;3.30;;;3.08;;
23362;SDS011;11853;48.080;11.960;2023-04-16T05:28:57;2.85;;;2.65;;
23362;SDS011;11853;48.080;11.960;2023-04-16T05:31:23;3.40;;;3.20;;
23362;SDS011;11853;48.080;11.960;2023-04-16T05:33:48;3.33;;;3.13;;
23362;SDS011;11853;48.080;11.960;2023-04-16T05:36:14;2.92;;;2.72;;
23362;SDS011;11853;48.080;11.960;2023-04-16T05:38:39;2.88;;;2.67;;
23362;SDS011;11853;48.080;11.960;2023-04-16T05:41:05;2.60;;;2.40;;
23362;SDS011;11853;48.080;11.960;2023-04-16T05:43:30;2.58;;;2.47;;
23362;SDS011;11853;48.080;11.960;2023-04-16T05:45:56;2.75;;;2.55;;
23362;SDS011;11853;48.080;11.960;2023-04-16T05:48:21;2.38;;;2.28;;
23362;SDS011;11853;48.080;11.960;2023-04-16T05:50:47;2.30;;;2.20;;
23362;SDS011;11853;48.080;11.960;2023-04-16T05:53:13;1.83;;;1.73;;
23362;SDS011;11853;48.080;11.960;2023-04-16T05:55:39;2.00;;;1.90;;
23362;SDS011;11853;48.080;11.960;2023-04-16T05:58:04;2.00;;;1.90;;
23362;SDS011;11853;48.080;11.960;2023-04-16T06:00:31;1.85;;;1.75;;
23362;SDS011;11853;48.080;11.960;2023-04-16T06:02:57;2.00;;;1.90;;
23362;SDS011;11853;48.080;11.960;2023-04-16T06:05:23;1.70;;;1.60;;
23362;SDS011;11853;48.080;11.960;2023-04-16T06:07:50;1.83;;;1.73;;
23362;SDS011;11853;48.080;11.960;2023-04-16T06:10:16;1.65;;;1.55;;
23362;SDS011;11853;48.080;11.960;2023-04-16T06:12:41;1.73;;;1.63;;
23362;SDS011;11853;48.080;11.960;2023-04-16T06:15:07;1.48;;;1.40;;
23362;SDS011;11853;48.080;11.960;2023-04-16T06:17:33;1.20;;;1.20;;
23362;SDS011;11853;48.080;11.960;2023-04-16T06:19:59;1.35;;;1.35;;
23362;SDS011;11853;48.080;11.960;2023-04-16T06:22:24;1.00;;;1.00;;
23362;SDS011;11853;48.080;11.960;2023-04-16T06:24:50;0.90;;;0.90;;
23362;SDS011;11853;48.080;11.960;2023-04-16T06:27:15;1.13;;;1.13;;
23362;SDS011;11853;48.080;11.960;2023-04-16T06:29:41;1.00;;;1.00;;
23362;SDS011;11853;48.080;11.960;2023-04-16T06:32:06;1.00;;;1.00;;
23362;SDS011;11853;48.080;11.960;2023-04-16T06:34:32;1.30;;;1.30;;
23362;SDS011;11853;48.080;11.960;2023-04-16T06:36:58;1.10;;;1.10;;
23362;SDS011;11853;48.080;11.960;2023-04-16T06:39:23;0.88;;;0.88;;
23362;SDS011;11853;48.080;11.960;2023-04-16T06:41:49;1.00;;;1.00;;
23362;SDS011;11853;48.080;11.960;2023-04-16T06:44:15;0.82;;;0.82;;
23362;SDS011;11853;48.080;11.960;2023-04-16T06:46:40;0.90;;;0.90;;
23362;SDS011;11853;48.080;11.960;2023-04-16T06:49:06;0.82;;;0.82;;
23362;SDS011;11853;48.080;11.960;2023-04-16T06:51:32;1.88;;;1.20;;
23362;SDS011;11853;48.080;11.960;2023-04-16T06:53:58;1.00;;;1.00;;
23362;SDS011;11853;48.080;11.960;2023-04-16T06:56:23;0.95;;;0.95;;
23362;SDS011;11853;48.080;11.960;2023-04-16T06:58:49;0.77;;;0.77;;
23362;SDS011;11853;48.080;11.960;2023-04-16T07:01:15;0.90;;;0.90;;
23362;SDS011;11853;48.080;11.960;2023-04-16T07:03:42;0.70;;;0.70;;
23362;SDS011;11853;48.080;11.960;2023-04-16T07:06:08;0.73;;;0.73;;
23362;SDS011;11853;48.080;11.960;2023-04-16T07:08:34;1.05;;;0.85;;
23362;SDS011;11853;48.080;11.960;2023-04-16T07:10:59;1.40;;;1.30;;
23362;SDS011;11853;48.080;11.960;2023-04-16T07:13:25;1.10;;;1.00;;
23362;SDS011;11853;48.080;11.960;2023-04-16T07:15:51;1.05;;;1.00;;
23362;SDS011;11853;48.080;11.960;2023-04-16T07:18:17;1.20;;;1.00;;
23362;SDS011;11853;48.080;11.960;2023-04-16T07:20:42;0.80;;;0.80;;
23362;SDS011;11853;48.080;11.960;2023-04-16T07:23:08;0.40;;;0.40;;
23362;SDS011;11853;48.080;11.960;2023-04-16T07:25:33;0.40;;;0.40;;
23362;SDS011;11853;48.080;11.960;2023-04-16T07:27:59;0.60;;;0.60;;
23362;SDS011;11853;48.080;11.960;2023-04-16T07:30:24;0.40;;;0.40;;
23362;SDS011;11853;48.080;11.960;2023-04-16T07:32:56;2.28;;;1.20;;
23362;SDS011;11853;48.080;11.960;2023-04-16T07:35:22;0.70;;;0.70;;
23362;SDS011;11853;48.080;11.960;2023-04-16T07:37:47;0.50;;;0.50;;
23362;SDS011;11853;48.080;11.960;2023-04-16T07:40:13;0.77;;;0.77;;
23362;SDS011;11853;48.080;11.960;2023-04-16T07:42:38;0.73;;;0.60;;
23362;SDS011;11853;48.080;11.960;2023-04-16T07:45:04;0.50;;;0.50;;
23362;SDS011;11853;48.080;11.960;2023-04-16T07:47:30;0.98;;;0.80;;
23362;SDS011;11853;48.080;11.960;2023-04-16T07:49:56;0.80;;;0.80;;
23362;SDS011;11853;48.080;11.960;2023-04-16T07:52:21;1.08;;;1.08;;
23362;SDS011;11853;48.080;11.960;2023-04-16T07:54:46;1.20;;;1.10;;
23362;SDS011;11853;48.080;11.960;2023-04-16T07:57:12;1.10;;;1.00;;
23362;SDS011;11853;48.080;11.960;2023-04-16T07:59:38;0.90;;;0.90;;
23362;SDS011;11853;48.080;11.960;2023-04-16T08:02:03;1.17;;;1.10;;
23362;SDS011;11853;48.080;11.960;2023-04-16T08:04:30;1.20;;;1.10;;
23362;SDS011;11853;48.080;11.960;2023-04-16T08:06:55;0.90;;;0.90;;
23362;SDS011;11853;48.080;11.960;2023-04-16T08:09:22;0.60;;;0.60;;
23362;SDS011;11853;48.080;11.960;2023-04-16T08:11:52;0.40;;;0.40;;
23362;SDS011;11853;48.080;11.960;2023-04-16T08:14:18;0.32;;;0.32;;
23362;SDS011;11853;48.080;11.960;2023-04-16T08:16:44;0.60;;;0.60;;
23362;SDS011;11853;48.080;11.960;2023-04-16T08:19:10;1.58;;;0.70;;
23362;SDS011;11853;48.080;11.960;2023-04-16T08:21:35;0.80;;;0.80;;
23362;SDS011;11853;48.080;11.960;2023-04-16T08:24:01;0.50;;;0.50;;
23362;SDS011;11853;48.080;11.960;2023-04-16T08:26:26;0.38;;;0.38;;
23362;SDS011;11853;48.080;11.960;2023-04-16T08:28:52;0.55;;;0.55;;
23362;SDS011;11853;48.080;11.960;2023-04-16T08:31:17;0.70;;;0.70;;
23362;SDS011;11853;48.080;11.960;2023-04-16T08:33:43;1.48;;;1.38;;
23362;SDS011;11853;48.080;11.960;2023-04-16T08:36:08;0.80;;;0.68;;
23362;SDS011;11853;48.080;11.960;2023-04-16T08:38:34;0.75;;;0.75;;
23362;SDS011;11853;48.080;11.960;2023-04-16T08:41:04;0.93;;;0.93;;
23362;SDS011;11853;48.080;11.960;2023-04-16T08:43:33;1.08;;;0.90;;
23362;SDS011;11853;48.080;11.960;2023-04-16T08:46:03;0.80;;;0.60;;
23362;SDS011;11853;48.080;11.960;2023-04-16T08:48:31;0.40;;;0.40;;
23362;SDS011;11853;48.080;11.960;2023-04-16T08:50:58;0.50;;;0.50;;
23362;SDS011;11853;48.080;11.960;2023-04-16T08:53:28;3.65;;;0.90;;
23362;SDS011;11853;48.080;11.960;2023-04-16T08:55:59;0.70;;;0.70;;
23362;SDS011;11853;48.080;11.960;2023-04-16T08:58:31;0.80;;;0.80;;
23362;SDS011;11853;48.080;11.960;2023-04-16T09:01:00;0.80;;;0.80;;
23362;SDS011;11853;48.080;11.960;2023-04-16T09:03:32;0.50;;;0.50;;
23362;SDS011;11853;48.080;11.960;2023-04-16T09:06:01;0.70;;;0.70;;
23362;SDS011;11853;48.080;11.960;2023-04-16T09:08:30;0.57;;;0.57;;
23362;SDS011;11853;48.080;11.960;2023-04-16T09:10:56;0.70;;;0.70;;
23362;SDS011;11853;48.080;11.960;2023-04-16T09:13:22;1.92;;;0.80;;
23362;SDS011;11853;48.080;11.960;2023-04-16T09:15:52;1.25;;;1.15;;
23362;SDS011;11853;48.080;11.960;2023-04-16T09:18:18;0.77;;;0.77;;
23362;SDS011;11853;48.080;11.960;2023-04-16T09:20:46;0.80;;;0.80;;
23362;SDS011;11853;48.080;11.960;2023-04-16T09:23:12;0.80;;;0.80;;
23362;SDS011;11853;48.080;11.960;2023-04-16T09:25:40;0.80;;;0.80;;
23362;SDS011;11853;48.080;11.960;2023-04-16T09:28:09;2.05;;;1.05;;
23362;SDS011;11853;48.080;11.960;2023-04-16T09:30:35;1.15;;;1.10;;
23362;SDS011;11853;48.080;11.960;2023-04-16T09:33:11;1.52;;;1.23;;
23362;SDS011;11853;48.080;11.960;2023-04-16T09:35:48;1.67;;;1.58;;
23362;SDS011;11853;48.080;11.960;2023-04-16T09:38:15;1.17;;;1.10;;
23362;SDS011;11853;48.080;11.960;2023-04-16T09:40:41;1.40;;;1.30;;
23362;SDS011;11853;48.080;11.960;2023-04-16T09:43:12;2.10;;;1.92;;
23362;SDS011;11853;48.080;11.960;2023-04-16T09:45:52;3.88;;;3.50;;
23362;SDS011;11853;48.080;11.960;2023-04-16T09:48:28;1.20;;;1.13;;
23362;SDS011;11853;48.080;11.960;2023-04-16T09:50:58;0.57;;;0.57;;
23362;SDS011;11853;48.080;11.960;2023-04-16T09:53:25;0.50;;;0.50;;
23362;SDS011;11853;48.080;11.960;2023-04-16T09:55:58;0.63;;;0.63;;
23362;SDS011;11853;48.080;11.960;2023-04-16T09:58:25;0.60;;;0.60;;
23362;SDS011;11853;48.080;11.960;2023-04-16T10:01:11;1.50;;;1.40;;
23362;SDS011;11853;48.080;11.960;2023-04-16T10:03:37;1.20;;;1.10;;
23362;SDS011;11853;48.080;11.960;2023-04-16T10:06:17;0.70;;;0.70;;
23362;SDS011;11853;48.080;11.960;2023-04-16T10:08:47;1.02;;;1.02;;
23362;SDS011;11853;48.080;11.960;2023-04-16T10:11:15;1.60;;;1.58;;
23362;SDS011;11853;48.080;11.960;2023-04-16T10:13:41;0.70;;;0.70;;
23362;SDS011;11853;48.080;11.960;2023-04-16T10:16:07;1.00;;;1.00;;
23362;SDS011;11853;48.080;11.960;2023-04-16T10:18:34;0.40;;;0.40;;
23362;SDS011;11853;48.080;11.960;2023-04-16T10:21:03;1.35;;;1.25;;
23362;SDS011;11853;48.080;11.960;2023-04-16T10:23:35;1.58;;;0.90;;
23362;SDS011;11853;48.080;11.960;2023-04-16T10:26:02;1.17;;;1.10;;
23362;SDS011;11853;48.080;11.960;2023-04-16T10:28:29;2.20;;;0.93;;
23362;SDS011;11853;48.080;11.960;2023-04-16T10:30:56;0.95;;;0.95;;
23362;SDS011;11853;48.080;11.960;2023-04-16T10:33:34;1.27;;;0.90;;
23362;SDS011;11853;48.080;11.960;2023-04-16T10:36:08;0.40;;;0.40;;
23362;SDS011;11853;48.080;11.960;2023-04-16T10:38:38;0.73;;;0.73;;
23362;SDS011;11853;48.080;11.960;2023-04-16T10:41:20;1.35;;;1.25;;
23362;SDS011;11853;48.080;11.960;2023-04-16T10:43:47;1.65;;;1.27;;
23362;SDS011;11853;48.080;11.960;2023-04-16T10:47:15;1.50;;;1.40;;
23362;SDS011;11853;48.080;11.960;2023-04-16T10:49:16;1.70;;;1.60;;
23362;SDS011;11853;48.080;11.960;2023-04-16T10:51:51;1.88;;;1.00;;
23362;SDS011;11853;48.080;11.960;2023-04-16T10:56:47;0.45;;;0.45;;
23362;SDS011;11853;48.080;11.960;2023-04-16T10:59:16;1.23;;;1.13;;
23362;SDS011;11853;48.080;11.960;2023-04-16T11:01:44;0.55;;;0.55;;
23362;SDS011;11853;48.080;11.960;2023-04-16T11:14:57;0.82;;;0.73;;
23362;SDS011;11853;48.080;11.960;2023-04-16T11:17:29;1.20;;;1.10;;
23362;SDS011;11853;48.080;11.960;2023-04-16T11:19:56;1.17;;;1.08;;
23362;SDS011;11853;48.080;11.960;2023-04-16T11:22:22;0.60;;;0.60;;
23362;SDS011;11853;48.080;11.960;2023-04-16T11:24:52;0.43;;;0.43;;
23362;SDS011;11853;48.080;11.960;2023-04-16T11:27:22;0.95;;;0.60;;
23362;SDS011;11853;48.080;11.960;2023-04-16T11:30:00;0.50;;;0.50;;
23362;SDS011;11853;48.080;11.960;2023-04-16T11:32:32;0.52;;;0.52;;
23362;SDS011;11853;48.080;11.960;2023-04-16T11:35:00;0.65;;;0.65;;
23362;SDS011;11853;48.080;11.960;2023-04-16T11:37:36;1.65;;;1.55;;
23362;SDS011;11853;48.080;11.960;2023-04-16T11:40:05;1.55;;;1.45;;
23362;SDS011;11853;48.080;11.960;2023-04-16T11:42:34;0.85;;;0.70;;
23362;SDS011;11853;48.080;11.960;2023-04-16T11:45:07;1.02;;;0.95;;
23362;SDS011;11853;48.080;11.960;2023-04-16T11:47:50;0.70;;;0.70;;
23362;SDS011;11853;48.080;11.960;2023-04-16T11:52:49;0.80;;;0.80;;
23362;SDS011;11853;48.080;11.960;2023-04-16T11:55:16;0.50;;;0.50;;
23362;SDS011;11853;48.080;11.960;2023-04-16T11:57:42;1.45;;;1.35;;
23362;SDS011;11853;48.080;11.960;2023-04-16T12:00:08;3.35;;;2.70;;
23362;SDS011;11853;48.080;11.960;2023-04-16T12:07:56;2.85;;;2.53;;
23362;SDS011;11853;48.080;11.960;2023-04-16T12:10:26;2.20;;;2.00;;
23362;SDS011;11853;48.080;11.960;2023-04-16T12:12:52;2.90;;;2.70;;
23362;SDS011;11853;48.080;11.960;2023-04-16T12:15:18;4.88;;;4.38;;
23362;SDS011;11853;48.080;11.960;2023-04-16T12:17:44;1.58;;;1.48;;
23362;SDS011;11853;48.080;11.960;2023-04-16T12:20:10;1.10;;;1.08;;
23362;SDS011;11853;48.080;11.960;2023-04-16T12:22:39;1.38;;;1.27;;
23362;SDS011;11853;48.080;11.960;2023-04-16T12:25:11;1.13;;;1.10;;
23362;SDS011;11853;48.080;11.960;2023-04-16T12:27:42;1.67;;;0.50;;
23362;SDS011;11853;48.080;11.960;2023-04-16T12:30:12;1.73;;;1.63;;
23362;SDS011;11853;48.080;11.960;2023-04-16T12:32:39;0.60;;;0.60;;
23362;SDS011;11853;48.080;11.960;2023-04-16T12:35:05;1.95;;;0.50;;
23362;SDS011;11853;48.080;11.960;2023-04-16T12:37:32;0.45;;;0.45;;
23362;SDS011;11853;48.080;11.960;2023-04-16T12:39:57;0.50;;;0.50;;
23362;SDS011;11853;48.080;11.960;2023-04-16T12:42:23;0.63;;;0.63;;
23362;SDS011;11853;48.080;11.960;2023-04-16T12:44:48;0.57;;;0.57;;
23362;SDS011;11853;48.080;11.960;2023-04-16T12:47:14;4.10;;;3.10;;
23362;SDS011;11853;48.080;11.960;2023-04-16T12:49:39;1.67;;;1.58;;
23362;SDS011;11853;48.080;11.960;2023-04-16T12:52:05;1.83;;;1.10;;
23362;SDS011;11853;48.080;11.960;2023-04-16T12:54:31;1.00;;;1.00;;
23362;SDS011;11853;48.080;11.960;2023-04-16T12:56:56;0.82;;;0.80;;
23362;SDS011;11853;48.080;11.960;2023-04-16T12:59:22;1.25;;;1.08;;
23362;SDS011;11853;48.080;11.960;2023-04-16T13:01:48;1.17;;;1.17;;
23362;SDS011;11853;48.080;11.960;2023-04-16T13:04:14;0.80;;;0.80;;
23362;SDS011;11853;48.080;11.960;2023-04-16T13:06:43;0.60;;;0.60;;
23362;SDS011;11853;48.080;11.960;2023-04-16T13:09:09;0.80;;;0.80;;
23362;SDS011;11853;48.080;11.960;2023-04-16T13:11:35;1.00;;;1.00;;
23362;SDS011;11853;48.080;11.960;2023-04-16T13:14:01;0.90;;;0.88;;
23362;SDS011;11853;48.080;11.960;2023-04-16T13:16:27;0.70;;;0.70;;
23362;SDS011;11853;48.080;11.960;2023-04-16T13:18:52;1.00;;;0.70;;
23362;SDS011;11853;48.080;11.960;2023-04-16T13:21:18;2.45;;;0.70;;
23362;SDS011;11853;48.080;11.960;2023-04-16T13:23:43;1.30;;;1.27;;
23362;SDS011;11853;48.080;11.960;2023-04-16T13:26:09;0.63;;;0.63;;
23362;SDS011;11853;48.080;11.960;2023-04-16T13:28:34;0.60;;;0.60;;
23362;SDS011;11853;48.080;11.960;2023-04-16T13:31:00;0.60;;;0.60;;
23362;SDS011;11853;48.080;11.960;2023-04-16T13:33:25;0.60;;;0.60;;
23362;SDS011;11853;48.080;11.960;2023-04-16T13:35:51;0.50;;;0.50;;
23362;SDS011;11853;48.080;11.960;2023-04-16T13:38:17;0.60;;;0.60;;
23362;SDS011;11853;48.080;11.960;2023-04-16T13:40:42;0.52;;;0.52;;
23362;SDS011;11853;48.080;11.960;2023-04-16T13:43:08;0.70;;;0.70;;
23362;SDS011;11853;48.080;11.960;2023-04-16T13:45:34;0.82;;;0.70;;
23362;SDS011;11853;48.080;11.960;2023-04-16T13:48:01;0.70;;;0.70;;
23362;SDS011;11853;48.080;11.960;2023-04-16T13:50:27;0.75;;;0.75;;
23362;SDS011;11853;48.080;11.960;2023-04-16T13:52:52;0.60;;;0.60;;
23362;SDS011;11853;48.080;11.960;2023-04-16T13:55:18;0.73;;;0.73;;
23362;SDS011;11853;48.080;11.960;2023-04-16T13:57:46;1.15;;;0.57;;
23362;SDS011;11853;48.080;11.960;2023-04-16T14:00:13;0.60;;;0.60;;
23362;SDS011;11853;48.080;11.960;2023-04-16T14:02:40;0.82;;;0.82;;
23362;SDS011;11853;48.080;11.960;2023-04-16T14:05:07;0.68;;;0.68;;
23362;SDS011;11853;48.080;11.960;2023-04-16T14:07:32;0.73;;;0.73;;
23362;SDS011;11853;48.080;11.960;2023-04-16T14:09:58;0.60;;;0.60;;
23362;SDS011;11853;48.080;11.960;2023-04-16T14:12:24;0.90;;;0.90;;
23362;SDS011;11853;48.080;11.960;2023-04-16T14:14:50;1.20;;;1.10;;
23362;SDS011;11853;48.080;11.960;2023-04-16T14:17:15;1.55;;;1.10;;
23362;SDS011;11853;48.080;11.960;2023-04-16T14:19:41;0.90;;;0.90;;
23362;SDS011;11853;48.080;11.960;2023-04-16T14:22:06;0.75;;;0.75;;
23362;SDS011;11853;48.080;11.960;2023-04-16T14:24:32;2.40;;;1.90;;
23362;SDS011;11853;48.080;11.960;2023-04-16T14:26:57;2.25;;;2.05;;
23362;SDS011;11853;48.080;11.960;2023-04-16T14:29:23;1.52;;;1.42;;
23362;SDS011;11853;48.080;11.960;2023-04-16T14:31:49;1.67;;;0.90;;
23362;SDS011;11853;48.080;11.960;2023-04-16T14:34:15;0.68;;;0.68;;
23362;SDS011;11853;48.080;11.960;2023-04-16T14:36:41;0.60;;;0.60;;
23362;SDS011;11853;48.080;11.960;2023-04-16T14:39:07;1.50;;;0.70;;
23362;SDS011;11853;48.080;11.960;2023-04-16T14:41:32;1.20;;;0.90;;
23362;SDS011;11853;48.080;11.960;2023-04-16T14:43:58;0.93;;;0.93;;
23362;SDS011;11853;48.080;11.960;2023-04-16T14:46:23;0.80;;;0.80;;
23362;SDS011;11853;48.080;11.960;2023-04-16T14:48:51;1.15;;;0.90;;
23362;SDS011;11853;48.080;11.960;2023-04-16T14:51:17;0.73;;;0.70;;